Terminal Aerodrome Forecast
Issued by NWS

Home | Current Version | Previous Version | Text Only | Print | Product List | Glossary On
Versions: 1 2 3 4 5 6 7 8 9 10 11 12 13
716
FTUS44 KMAF 212335
TAFINK
TAF
KINK 212335Z 2200/2224 27030G40KT 6SM BLDU BKN100
     FM220900 28025G35KT P6SM SCT200=

USA.gov is the U.S. government's official web portal to all federal, state and local government web resources and services.